Kadesh, Louisiana
Current Conditions -  °F | °C
As of 2:35 AM on Monday 24 Nov 2014 (Local Time) from KIER Reporting Station
Clear Clear  
Wind Chill: 56°   Ceiling: Unl
Heat Index: 56°   Visibility: 10mi
Dew Point: 47°   Wind: 16mph
Humidity: 70%   Direction: 300°WNW
Pressure: 29.76"   Gusts: 25mph
Location:  31.6668°N, 92.8023°W
Report Text: KIER 240835Z AUTO 30014G22KT 10SM CLR 14/08 A2976 RMK AO2 T01350082
Loading
Personal Weather Stations






























Interactive Weather Map New forecast layout! Learn more

10-Day Weather Forecast

Advertisements
Track Severe Weather on mobile